createdAt,value
2023-03-01T00:01:42.336Z,19.25
2023-03-01T00:04:09.571Z,20.35
2023-03-01T00:06:36.906Z,19.55
2023-03-01T00:09:05.132Z,18.40
2023-03-01T00:11:34.519Z,19.30
2023-03-01T00:14:05.778Z,18.38
2023-03-01T00:16:43.234Z,17.80
2023-03-01T00:19:22.896Z,19.70
2023-03-01T00:21:50.150Z,18.30
2023-03-01T00:24:17.816Z,18.40
2023-03-01T00:26:45.157Z,18.42
2023-03-01T00:29:12.410Z,19.38
2023-03-01T00:31:39.638Z,18.77
2023-03-01T00:34:07.282Z,19.00
2023-03-01T00:36:38.010Z,18.63
2023-03-01T00:39:14.427Z,18.92
2023-03-01T00:41:43.224Z,19.30
2023-03-01T00:44:10.784Z,19.55
2023-03-01T00:46:38.146Z,19.73
2023-03-01T00:49:05.590Z,19.55
2023-03-01T00:51:33.077Z,20.13
2023-03-01T00:54:03.340Z,19.63
2023-03-01T00:56:32.250Z,19.65
2023-03-01T00:58:59.725Z,19.40
2023-03-01T01:01:31.441Z,18.92
2023-03-01T01:04:05.094Z,17.27
2023-03-01T01:06:40.640Z,17.60
2023-03-01T01:09:09.280Z,17.38
2023-03-01T01:11:39.865Z,20.10
2023-03-01T01:14:07.116Z,17.52
2023-03-01T01:16:34.510Z,18.65
2023-03-01T01:19:02.667Z,19.33
2023-03-01T01:21:30.765Z,18.80
2023-03-01T01:23:58.472Z,18.10
2023-03-01T01:26:33.714Z,19.45
2023-03-01T01:29:04.537Z,17.52
2023-03-01T01:31:33.736Z,19.00
2023-03-01T01:34:05.932Z,17.45
2023-03-01T01:36:35.152Z,17.73
2023-03-01T01:39:03.075Z,17.25
2023-03-01T01:41:31.444Z,17.73
2023-03-01T01:44:27.555Z,18.85
2023-03-01T01:47:06.993Z,17.48
2023-03-01T01:49:56.221Z,17.33
2023-03-01T01:52:35.319Z,15.45
2023-03-01T01:55:13.049Z,17.77
2023-03-01T01:57:46.994Z,17.25
2023-03-01T02:00:32.593Z,17.40
2023-03-01T02:03:19.052Z,16.85
2023-03-01T02:06:07.778Z,17.00
2023-03-01T02:08:39.393Z,15.65
2023-03-01T02:11:07.499Z,17.95
2023-03-01T02:13:35.489Z,18.25
2023-03-01T02:16:10.649Z,18.23
2023-03-01T02:18:41.268Z,17.40
2023-03-01T02:22:00.800Z,17.83
2023-03-01T02:25:24.893Z,17.02
2023-03-01T02:28:16.395Z,18.13
2023-03-01T02:31:09.011Z,17.02
2023-03-01T02:33:40.376Z,15.93
2023-03-01T02:36:24.692Z,16.80
2023-03-01T02:38:57.596Z,16.08
2023-03-01T02:41:29.630Z,15.93
2023-03-01T02:43:57.044Z,16.33
2023-03-01T02:46:27.208Z,16.13
2023-03-01T02:48:59.095Z,15.63
2023-03-01T02:52:19.516Z,17.45
2023-03-01T02:55:06.896Z,14.57
2023-03-01T02:57:40.101Z,16.42
2023-03-01T03:00:26.022Z,16.55
2023-03-01T03:02:55.117Z,14.55
2023-03-01T03:05:30.335Z,15.80
2023-03-01T03:08:02.483Z,16.42
2023-03-01T03:10:40.471Z,14.93
2023-03-01T03:13:14.761Z,15.25
2023-03-01T03:15:44.774Z,16.73
2023-03-01T03:18:17.110Z,15.75
2023-03-01T03:20:45.488Z,15.85
2023-03-01T03:23:14.152Z,15.98
2023-03-01T03:28:12.060Z,14.93
2023-03-01T03:30:42.014Z,16.15
2023-03-01T03:33:13.655Z,15.07
2023-03-01T03:35:48.611Z,14.38
2023-03-01T03:38:20.615Z,14.98
2023-03-01T03:41:04.164Z,15.65
2023-03-01T03:43:35.128Z,15.13
2023-03-01T03:46:06.856Z,15.73
2023-03-01T03:48:41.452Z,15.25
2023-03-01T03:51:13.912Z,16.25
2023-03-01T03:53:42.011Z,14.85
2023-03-01T03:56:10.129Z,14.70
2023-03-01T03:58:37.801Z,15.70
2023-03-01T04:01:05.636Z,16.67
2023-03-01T04:03:35.954Z,13.85
2023-03-01T04:06:05.115Z,14.60
2023-03-01T04:08:32.854Z,16.17
2023-03-01T04:11:22.645Z,17.13
2023-03-01T04:13:50.239Z,16.75
2023-03-01T04:16:18.624Z,15.60
2023-03-01T04:18:46.289Z,15.15
2023-03-01T04:21:13.749Z,16.23
2023-03-01T04:23:42.007Z,14.80
2023-03-01T04:26:09.691Z,14.93
2023-03-01T04:28:46.330Z,15.85
2023-03-01T04:31:22.328Z,15.85
2023-03-01T04:33:56.629Z,16.58
2023-03-01T04:36:29.371Z,15.23
2023-03-01T04:38:58.075Z,16.75
2023-03-01T04:41:26.985Z,15.98
2023-03-01T04:43:54.423Z,16.00
2023-03-01T04:46:23.055Z,16.15
2023-03-01T04:51:17.751Z,14.02
2023-03-01T04:53:45.474Z,14.55
2023-03-01T04:56:18.729Z,14.68
2023-03-01T04:58:47.148Z,16.20
2023-03-01T05:01:19.742Z,15.77
2023-03-01T05:03:51.927Z,14.63
2023-03-01T05:06:21.447Z,14.60
2023-03-01T05:08:48.748Z,16.33
2023-03-01T05:11:16.056Z,15.85
2023-03-01T05:13:43.408Z,17.40
2023-03-01T05:16:17.521Z,17.27
2023-03-01T05:18:44.802Z,16.48
2023-03-01T05:21:16.930Z,15.18
2023-03-01T05:23:45.202Z,16.17
2023-03-01T05:26:27.416Z,16.63
2023-03-01T05:28:59.841Z,17.15
2023-03-01T05:31:27.934Z,16.02
2023-03-01T05:33:55.306Z,16.20
2023-03-01T05:36:22.576Z,17.45
2023-03-01T05:38:49.816Z,16.42
2023-03-01T05:41:17.921Z,16.95
2023-03-01T05:43:46.035Z,17.95
2023-03-01T05:46:14.358Z,16.50
2023-03-01T05:48:42.053Z,18.00
2023-03-01T05:51:09.335Z,17.40
2023-03-01T05:53:36.534Z,17.40
2023-03-01T05:56:07.128Z,17.58
2023-03-01T05:58:34.360Z,14.60
2023-03-01T06:01:01.575Z,17.23
2023-03-01T06:03:28.722Z,15.98
2023-03-01T06:05:59.280Z,14.75
2023-03-01T06:08:28.114Z,16.10
2023-03-01T06:10:55.650Z,17.38
2023-03-01T06:13:24.498Z,17.15
2023-03-01T06:15:53.049Z,15.77
2023-03-01T06:18:20.429Z,16.85
2023-03-01T06:20:55.156Z,16.42
2023-03-01T06:23:23.994Z,16.45
2023-03-01T06:28:18.777Z,14.73
2023-03-01T06:30:46.102Z,17.90
2023-03-01T06:33:13.322Z,16.70
2023-03-01T06:35:40.601Z,20.27
2023-03-01T06:38:07.769Z,18.92
2023-03-01T06:40:36.225Z,20.67
2023-03-01T06:43:03.675Z,22.40
2023-03-01T06:45:35.010Z,26.13
2023-03-01T06:48:05.662Z,18.38
2023-03-01T06:50:36.592Z,19.95
2023-03-01T06:53:04.269Z,26.10
2023-03-01T06:55:32.544Z,23.25
2023-03-01T06:58:03.661Z,18.85
2023-03-01T07:00:31.621Z,21.10
2023-03-01T07:03:03.486Z,20.85
2023-03-01T07:05:31.774Z,16.60
2023-03-01T07:07:58.969Z,18.67
2023-03-01T07:10:26.222Z,19.25
2023-03-01T07:12:57.810Z,17.55
2023-03-01T07:15:27.626Z,20.17
2023-03-01T07:17:55.171Z,23.05
2023-03-01T07:20:26.441Z,20.30
2023-03-01T07:22:56.247Z,18.73
2023-03-01T07:25:23.576Z,20.33
2023-03-01T07:27:55.362Z,22.77
2023-03-01T07:30:23.631Z,20.30
2023-03-01T07:32:51.082Z,18.77
2023-03-01T07:35:18.596Z,19.63
2023-03-01T07:37:45.786Z,16.90
2023-03-01T07:40:14.055Z,18.67
2023-03-01T07:42:41.355Z,17.20
2023-03-01T07:45:09.356Z,17.23
2023-03-01T07:47:36.954Z,17.67
2023-03-01T07:50:05.515Z,17.23
2023-03-01T07:52:32.992Z,17.83
2023-03-01T07:55:00.182Z,18.85
2023-03-01T07:57:28.290Z,19.95
2023-03-01T07:59:55.441Z,19.20
2023-03-01T08:02:22.608Z,19.20
2023-03-01T08:04:49.884Z,21.08
2023-03-01T08:07:17.178Z,17.77
2023-03-01T08:09:44.416Z,20.05
2023-03-01T08:12:11.603Z,18.40
2023-03-01T08:14:38.850Z,18.50
2023-03-01T08:17:06.095Z,18.35
2023-03-01T08:19:34.133Z,20.02
2023-03-01T08:22:03.505Z,20.90
2023-03-01T08:24:30.967Z,20.20
2023-03-01T08:26:58.257Z,18.10
2023-03-01T08:29:25.730Z,19.55
2023-03-01T08:31:53.138Z,19.67
2023-03-01T08:34:20.434Z,18.35
2023-03-01T08:36:48.342Z,19.92
2023-03-01T08:39:20.105Z,18.30
2023-03-01T08:41:48.389Z,18.83
2023-03-01T08:44:20.516Z,19.17
2023-03-01T08:46:51.533Z,20.05
2023-03-01T08:49:21.082Z,17.15
2023-03-01T08:51:49.150Z,17.55
2023-03-01T08:54:22.143Z,18.05
2023-03-01T08:56:49.971Z,16.73
2023-03-01T08:59:19.015Z,16.50
2023-03-01T09:01:46.396Z,16.65
2023-03-01T09:04:15.874Z,15.18
2023-03-01T09:06:44.588Z,13.88
2023-03-01T09:11:47.410Z,12.70
2023-03-01T09:14:15.651Z,11.85
2023-03-01T09:16:43.508Z,10.93
2023-03-01T09:19:10.859Z,10.63
2023-03-01T09:21:40.972Z,10.85
2023-03-01T09:24:15.497Z,12.27
2023-03-01T09:26:43.860Z,12.20
2023-03-01T09:29:11.386Z,13.52
2023-03-01T09:31:39.114Z,13.80
2023-03-01T09:34:07.266Z,14.27
2023-03-01T09:36:34.965Z,14.07
2023-03-01T09:39:05.915Z,14.75
2023-03-01T09:42:05.338Z,12.70
2023-03-01T09:44:58.557Z,12.88
2023-03-01T09:50:22.350Z,10.48
2023-03-01T09:53:07.708Z,10.98
2023-03-01T09:56:04.299Z,11.45
2023-03-01T09:59:14.532Z,11.32
2023-03-01T10:02:29.122Z,11.25
2023-03-01T10:05:30.475Z,10.75
2023-03-01T10:08:30.395Z,9.23
2023-03-01T10:10:59.377Z,10.73
2023-03-01T10:13:46.480Z,10.57
2023-03-01T10:16:22.495Z,10.27
2023-03-01T10:19:00.708Z,11.70
2023-03-01T10:21:32.465Z,11.75
2023-03-01T10:24:20.902Z,11.95
2023-03-01T10:27:09.406Z,15.65
2023-03-01T10:29:55.029Z,14.15
2023-03-01T10:32:25.067Z,14.52
2023-03-01T10:34:52.642Z,15.75
2023-03-01T10:37:22.872Z,17.48
2023-03-01T10:40:11.402Z,15.38
2023-03-01T10:42:50.532Z,15.30
2023-03-01T10:45:40.577Z,15.00
2023-03-01T10:48:24.500Z,13.30
2023-03-01T10:51:07.969Z,12.10
2023-03-01T10:53:53.348Z,12.20
2023-03-01T10:56:20.855Z,13.25
2023-03-01T10:59:04.099Z,13.23
2023-03-01T11:01:36.194Z,13.40
2023-03-01T11:04:06.565Z,13.88
2023-03-01T11:06:44.826Z,12.85
2023-03-01T11:09:24.629Z,13.60
2023-03-01T11:11:58.610Z,11.63
2023-03-01T11:14:41.754Z,12.77
2023-03-01T11:17:44.568Z,10.88
2023-03-01T11:20:29.097Z,11.73
2023-03-01T11:23:03.638Z,14.40
2023-03-01T11:25:39.121Z,19.40
2023-03-01T11:28:16.049Z,13.65
2023-03-01T11:31:15.021Z,11.85
2023-03-01T11:34:10.271Z,11.32
2023-03-01T11:36:56.023Z,10.98
2023-03-01T11:39:33.388Z,10.82
2023-03-01T11:42:29.473Z,11.95
2023-03-01T11:45:04.211Z,12.43
2023-03-01T11:48:23.196Z,11.65
2023-03-01T11:50:50.913Z,13.18
2023-03-01T11:54:00.756Z,10.15
2023-03-01T11:56:40.400Z,12.93
2023-03-01T11:59:52.057Z,13.75
2023-03-01T12:02:54.918Z,13.25
2023-03-01T12:05:43.899Z,16.42
2023-03-01T12:08:32.294Z,12.45
2023-03-01T12:11:45.146Z,12.60
2023-03-01T12:14:37.289Z,13.90
2023-03-01T12:17:48.122Z,12.48
2023-03-01T12:21:00.769Z,13.20
2023-03-01T12:23:50.126Z,14.98
2023-03-01T12:26:39.757Z,13.98
2023-03-01T12:29:43.545Z,14.38
2023-03-01T12:32:30.984Z,12.93
2023-03-01T12:35:59.123Z,14.45
2023-03-01T12:38:57.240Z,14.70
2023-03-01T12:42:03.056Z,14.52
2023-03-01T12:44:51.161Z,14.23
2023-03-01T12:47:43.991Z,13.77
2023-03-01T12:50:25.605Z,15.43
2023-03-01T12:52:58.717Z,14.48
2023-03-01T12:55:39.108Z,14.77
2023-03-01T12:58:47.356Z,12.80
2023-03-01T13:01:49.351Z,14.50
2023-03-01T13:05:10.013Z,13.20
2023-03-01T13:07:44.451Z,12.23
2023-03-01T13:10:44.797Z,14.70
2023-03-01T13:13:26.458Z,13.35
2023-03-01T13:15:55.238Z,12.77
2023-03-01T13:18:26.279Z,15.32
2023-03-01T13:21:01.029Z,13.82
2023-03-01T13:25:59.953Z,13.00
2023-03-01T13:28:43.519Z,14.00
2023-03-01T13:31:16.629Z,13.90
2023-03-01T13:34:09.120Z,13.27
2023-03-01T13:36:37.070Z,12.43
2023-03-01T13:39:39.807Z,13.98
2023-03-01T13:42:42.519Z,12.57
2023-03-01T13:45:42.401Z,15.57
2023-03-01T13:48:23.861Z,15.00
2023-03-01T13:51:01.471Z,12.18
2023-03-01T13:53:36.103Z,14.88
2023-03-01T13:56:20.579Z,14.57
2023-03-01T13:59:17.458Z,15.02
2023-03-01T14:01:45.103Z,16.77
2023-03-01T14:04:36.822Z,13.38
2023-03-01T14:07:30.457Z,13.55
2023-03-01T14:10:05.413Z,15.25
2023-03-01T14:12:53.843Z,14.93
2023-03-01T14:15:31.347Z,14.63
2023-03-01T14:18:30.025Z,15.32
2023-03-01T14:20:57.227Z,13.88
2023-03-01T14:23:25.222Z,14.57
2023-03-01T14:25:58.910Z,14.20
2023-03-01T14:28:38.400Z,13.23
2023-03-01T14:31:53.703Z,15.20
2023-03-01T14:34:25.054Z,15.25
2023-03-01T14:36:52.559Z,15.68
2023-03-01T14:39:30.076Z,15.10
2023-03-01T14:42:00.551Z,13.13
2023-03-01T14:44:30.836Z,15.82
2023-03-01T14:46:58.714Z,15.77
2023-03-01T14:49:31.865Z,12.90
2023-03-01T14:52:06.341Z,15.73
2023-03-01T14:54:45.474Z,14.93
2023-03-01T14:57:25.141Z,14.70
2023-03-01T15:00:01.407Z,14.43
2023-03-01T15:02:31.593Z,14.02
2023-03-01T15:05:08.158Z,14.27
2023-03-01T15:07:43.062Z,15.07
2023-03-01T15:10:26.138Z,14.68
2023-03-01T15:12:54.173Z,14.25
2023-03-01T15:15:36.089Z,14.93
2023-03-01T15:18:20.164Z,14.95
2023-03-01T15:20:51.110Z,15.27
2023-03-01T15:23:27.859Z,14.32
2023-03-01T15:26:01.396Z,14.35
2023-03-01T15:28:34.771Z,15.18
2023-03-01T15:31:32.702Z,14.32
2023-03-01T15:34:35.449Z,15.63
2023-03-01T15:37:09.593Z,15.82
2023-03-01T15:39:44.153Z,15.93
2023-03-01T15:45:26.598Z,15.35
2023-03-01T15:48:18.937Z,14.88
2023-03-01T15:50:59.092Z,15.02
2023-03-01T15:53:28.948Z,14.70
2023-03-01T15:55:56.105Z,14.57
2023-03-01T15:58:26.680Z,17.00
2023-03-01T16:01:01.088Z,15.80
2023-03-01T16:03:30.365Z,15.25
2023-03-01T16:05:57.883Z,15.15
2023-03-01T16:08:25.796Z,16.55
2023-03-01T16:10:55.276Z,14.80
2023-03-01T16:13:22.637Z,14.20
2023-03-01T16:15:50.017Z,14.75
2023-03-01T16:18:17.343Z,15.25
2023-03-01T16:20:44.510Z,14.38
2023-03-01T16:23:12.739Z,13.38
2023-03-01T16:25:40.193Z,15.15
2023-03-01T16:28:11.160Z,14.43
2023-03-01T16:30:40.567Z,16.13
2023-03-01T16:33:24.236Z,14.57
2023-03-01T16:35:56.501Z,14.05
2023-03-01T16:38:23.808Z,15.05
2023-03-01T16:40:52.809Z,13.35
2023-03-01T16:43:20.246Z,15.38
2023-03-01T16:45:47.792Z,14.77
2023-03-01T16:48:15.266Z,14.65
2023-03-01T16:50:42.540Z,14.32
2023-03-01T16:53:10.175Z,15.98
2023-03-01T16:55:38.783Z,14.55
2023-03-01T17:00:34.147Z,14.13
2023-03-01T17:03:01.460Z,16.05
2023-03-01T17:05:28.827Z,13.85
2023-03-01T17:07:58.009Z,14.25
2023-03-01T17:10:25.207Z,13.38
2023-03-01T17:12:52.451Z,14.00
2023-03-01T17:15:19.848Z,13.52
2023-03-01T17:17:51.584Z,14.25
2023-03-01T17:20:19.514Z,12.88
2023-03-01T17:22:47.768Z,14.15
2023-03-01T17:25:15.591Z,13.90
2023-03-01T17:27:42.829Z,11.68
2023-03-01T17:30:14.152Z,16.05
2023-03-01T17:32:42.377Z,12.98
2023-03-01T17:35:12.096Z,12.73
2023-03-01T17:37:40.476Z,14.50
2023-03-01T17:40:09.032Z,14.25
2023-03-01T17:45:03.772Z,12.18
2023-03-01T17:47:30.967Z,11.05
2023-03-01T17:49:58.160Z,12.10
2023-03-01T17:52:25.406Z,16.20
2023-03-01T17:54:52.504Z,16.02
2023-03-01T17:57:19.845Z,11.50
2023-03-01T17:59:47.035Z,12.88
2023-03-01T18:02:14.428Z,16.55
2023-03-01T18:04:41.655Z,14.18
2023-03-01T18:07:08.779Z,15.90
2023-03-01T18:09:35.994Z,14.13
2023-03-01T18:12:03.221Z,16.63
2023-03-01T18:14:33.825Z,16.08
2023-03-01T18:17:11.613Z,15.05
2023-03-01T18:19:41.268Z,15.35
2023-03-01T18:22:09.259Z,15.07
2023-03-01T18:24:38.091Z,16.35
2023-03-01T18:27:05.685Z,15.35
2023-03-01T18:29:33.071Z,13.98
2023-03-01T18:32:00.445Z,16.05
2023-03-01T18:34:28.727Z,16.42
2023-03-01T18:37:08.712Z,14.00
2023-03-01T18:39:37.270Z,15.25
2023-03-01T18:42:04.617Z,15.63
2023-03-01T18:44:31.819Z,16.92
2023-03-01T18:46:59.085Z,16.08
2023-03-01T18:49:26.860Z,15.30
2023-03-01T18:51:54.495Z,13.90
2023-03-01T18:54:21.816Z,13.80
2023-03-01T18:56:48.989Z,12.50
2023-03-01T18:59:16.405Z,13.07
2023-03-01T19:01:43.869Z,11.40
2023-03-01T19:04:12.130Z,12.07
2023-03-01T19:06:39.455Z,12.15
2023-03-01T19:09:08.579Z,12.10
2023-03-01T19:11:35.955Z,12.13
2023-03-01T19:14:04.806Z,12.45
2023-03-01T19:16:34.284Z,13.52
2023-03-01T19:19:05.114Z,12.77
2023-03-01T19:21:33.621Z,13.90
2023-03-01T19:24:02.565Z,13.35
2023-03-01T19:26:31.693Z,13.57
2023-03-01T19:28:59.882Z,11.98
2023-03-01T19:31:31.145Z,13.65
2023-03-01T19:34:11.414Z,13.20
2023-03-01T19:36:42.839Z,12.50
2023-03-01T19:39:13.529Z,13.25
2023-03-01T19:41:42.704Z,13.48
2023-03-01T19:44:11.161Z,12.88
2023-03-01T19:46:38.662Z,13.73
2023-03-01T19:49:06.546Z,12.13
2023-03-01T19:51:36.392Z,13.45
2023-03-01T19:54:06.130Z,12.98
2023-03-01T19:56:34.701Z,13.38
2023-03-01T19:59:04.241Z,13.55
2023-03-01T20:01:34.327Z,12.10
2023-03-01T20:04:04.220Z,12.83
2023-03-01T20:06:32.276Z,12.77
2023-03-01T20:09:04.212Z,14.10
2023-03-01T20:11:36.507Z,13.65
2023-03-01T20:14:06.625Z,14.70
2023-03-01T20:16:34.383Z,15.65
2023-03-01T20:19:02.185Z,14.93
2023-03-01T20:21:29.378Z,14.23
2023-03-01T20:23:56.730Z,13.63
2023-03-01T20:26:25.433Z,14.90
2023-03-01T20:28:56.870Z,13.98
2023-03-01T20:31:29.277Z,12.93
2023-03-01T20:33:59.667Z,13.65
2023-03-01T20:36:28.215Z,13.15
2023-03-01T20:41:26.689Z,12.82
2023-03-01T20:43:56.355Z,11.48
2023-03-01T20:46:26.678Z,12.85
2023-03-01T20:48:54.582Z,11.38
2023-03-01T20:51:22.115Z,13.25
2023-03-01T20:53:49.716Z,11.35
2023-03-01T20:56:19.621Z,11.52
2023-03-01T20:59:08.118Z,10.80
2023-03-01T21:01:36.768Z,12.25
2023-03-01T21:04:06.035Z,13.40
2023-03-01T21:06:33.539Z,12.20
2023-03-01T21:09:00.988Z,13.45
2023-03-01T21:11:28.234Z,14.07
2023-03-01T21:13:56.771Z,13.55
2023-03-01T21:16:25.242Z,13.57
2023-03-01T21:18:53.469Z,13.82
2023-03-01T21:21:23.988Z,14.27
2023-03-01T21:23:51.193Z,13.10
2023-03-01T21:26:24.134Z,15.88
2023-03-01T21:29:01.260Z,14.30
2023-03-01T21:31:33.948Z,13.20
2023-03-01T21:34:06.161Z,14.80
2023-03-01T21:36:35.743Z,15.25
2023-03-01T21:39:05.437Z,15.15
2023-03-01T21:41:37.962Z,15.35
2023-03-01T21:44:07.267Z,14.55
2023-03-01T21:46:39.343Z,14.95
2023-03-01T21:49:08.727Z,14.15
2023-03-01T21:51:36.741Z,15.50
2023-03-01T21:54:05.607Z,14.75
2023-03-01T21:56:38.553Z,14.07
2023-03-01T21:59:14.292Z,15.55
2023-03-01T22:01:41.978Z,15.77
2023-03-01T22:04:10.002Z,15.38
2023-03-01T22:06:42.408Z,15.63
2023-03-01T22:09:23.121Z,16.23
2023-03-01T22:11:54.507Z,15.85
2023-03-01T22:14:22.201Z,16.40
2023-03-01T22:16:51.573Z,14.00
2023-03-01T22:19:19.892Z,14.85
2023-03-01T22:21:52.132Z,16.02
2023-03-01T22:24:24.522Z,14.73
2023-03-01T22:26:54.296Z,15.70
2023-03-01T22:29:29.432Z,15.23
2023-03-01T22:31:58.705Z,15.50
2023-03-01T22:34:26.995Z,15.80
2023-03-01T22:36:54.411Z,15.68
2023-03-01T22:39:22.104Z,15.55
2023-03-01T22:41:49.902Z,15.30
2023-03-01T22:44:22.760Z,15.98
2023-03-01T22:46:50.696Z,14.82
2023-03-01T22:49:19.294Z,16.63
2023-03-01T22:51:47.554Z,15.38
2023-03-01T22:54:16.554Z,16.10
2023-03-01T22:56:44.275Z,17.08
2023-03-01T22:59:16.625Z,14.85
2023-03-01T23:01:47.643Z,15.75
2023-03-01T23:04:16.998Z,14.68
2023-03-01T23:06:50.642Z,16.45
2023-03-01T23:09:26.916Z,15.43
2023-03-01T23:11:55.520Z,17.65
2023-03-01T23:14:23.945Z,17.42
2023-03-01T23:16:52.077Z,15.55
2023-03-01T23:19:19.359Z,15.60
2023-03-01T23:21:49.933Z,16.95
2023-03-01T23:24:22.336Z,15.25
2023-03-01T23:26:56.072Z,16.40
2023-03-01T23:29:23.457Z,15.45
2023-03-01T23:31:50.701Z,16.65
2023-03-01T23:34:19.174Z,15.35
2023-03-01T23:36:46.876Z,17.13
2023-03-01T23:39:14.760Z,15.18
2023-03-01T23:41:42.278Z,14.85
2023-03-01T23:44:20.928Z,16.50
2023-03-01T23:46:50.793Z,17.23
2023-03-01T23:49:23.059Z,16.33
2023-03-01T23:51:50.970Z,14.80
2023-03-01T23:54:22.806Z,16.60
2023-03-01T23:56:50.305Z,16.92
2023-03-01T23:59:23.581Z,16.05
